sensor_id;sensor_type;location;lat;lon;timestamp;P1;durP1;ratioP1;P2;durP2;ratioP2
49139;SDS011;34959;49.310;8.646;2022-08-01T00:00:09;3.90;;;1.80;;
49139;SDS011;34959;49.310;8.646;2022-08-01T00:02:35;4.55;;;1.80;;
49139;SDS011;34959;49.310;8.646;2022-08-01T00:05:02;3.17;;;1.73;;
49139;SDS011;34959;49.310;8.646;2022-08-01T00:07:30;2.38;;;1.65;;
49139;SDS011;34959;49.310;8.646;2022-08-01T00:09:56;3.38;;;1.80;;
49139;SDS011;34959;49.310;8.646;2022-08-01T00:12:22;6.32;;;1.88;;
49139;SDS011;34959;49.310;8.646;2022-08-01T00:14:47;3.35;;;1.60;;
49139;SDS011;34959;49.310;8.646;2022-08-01T00:17:13;3.35;;;1.95;;
49139;SDS011;34959;49.310;8.646;2022-08-01T00:19:38;3.50;;;1.80;;
49139;SDS011;34959;49.310;8.646;2022-08-01T00:22:04;2.55;;;1.90;;
49139;SDS011;34959;49.310;8.646;2022-08-01T00:24:29;2.45;;;1.70;;
49139;SDS011;34959;49.310;8.646;2022-08-01T00:26:54;3.97;;;1.80;;
49139;SDS011;34959;49.310;8.646;2022-08-01T00:29:20;8.90;;;2.13;;
49139;SDS011;34959;49.310;8.646;2022-08-01T00:31:45;2.97;;;1.70;;
49139;SDS011;34959;49.310;8.646;2022-08-01T00:34:11;3.50;;;1.85;;
49139;SDS011;34959;49.310;8.646;2022-08-01T00:36:36;3.55;;;1.60;;
49139;SDS011;34959;49.310;8.646;2022-08-01T00:39:02;3.85;;;1.70;;
49139;SDS011;34959;49.310;8.646;2022-08-01T00:41:27;4.15;;;1.90;;
49139;SDS011;34959;49.310;8.646;2022-08-01T00:43:53;3.10;;;1.58;;
49139;SDS011;34959;49.310;8.646;2022-08-01T00:46:19;2.15;;;1.60;;
49139;SDS011;34959;49.310;8.646;2022-08-01T00:48:44;2.33;;;1.45;;
49139;SDS011;34959;49.310;8.646;2022-08-01T00:51:10;1.92;;;1.60;;
49139;SDS011;34959;49.310;8.646;2022-08-01T00:53:38;3.35;;;1.70;;
49139;SDS011;34959;49.310;8.646;2022-08-01T00:56:04;1.98;;;1.50;;
49139;SDS011;34959;49.310;8.646;2022-08-01T00:58:29;2.13;;;1.60;;
49139;SDS011;34959;49.310;8.646;2022-08-01T01:00:57;2.40;;;1.60;;
49139;SDS011;34959;49.310;8.646;2022-08-01T01:03:23;2.67;;;1.80;;
49139;SDS011;34959;49.310;8.646;2022-08-01T01:05:54;2.35;;;1.70;;
49139;SDS011;34959;49.310;8.646;2022-08-01T01:08:27;2.10;;;1.65;;
49139;SDS011;34959;49.310;8.646;2022-08-01T01:11:01;2.75;;;1.50;;
49139;SDS011;34959;49.310;8.646;2022-08-01T01:13:38;2.70;;;1.63;;
49139;SDS011;34959;49.310;8.646;2022-08-01T01:16:10;2.90;;;1.77;;
49139;SDS011;34959;49.310;8.646;2022-08-01T01:18:43;3.90;;;1.73;;
49139;SDS011;34959;49.310;8.646;2022-08-01T01:31:59;3.22;;;1.83;;
49139;SDS011;34959;49.310;8.646;2022-08-01T01:34:29;2.58;;;1.75;;
49139;SDS011;34959;49.310;8.646;2022-08-01T01:36:57;2.20;;;1.70;;
49139;SDS011;34959;49.310;8.646;2022-08-01T01:39:23;1.92;;;1.60;;
49139;SDS011;34959;49.310;8.646;2022-08-01T01:41:49;3.15;;;1.80;;
49139;SDS011;34959;49.310;8.646;2022-08-01T01:44:16;2.45;;;1.67;;
49139;SDS011;34959;49.310;8.646;2022-08-01T01:46:42;2.30;;;1.65;;
49139;SDS011;34959;49.310;8.646;2022-08-01T01:49:08;2.28;;;1.58;;
49139;SDS011;34959;49.310;8.646;2022-08-01T01:51:35;3.13;;;1.60;;
49139;SDS011;34959;49.310;8.646;2022-08-01T01:54:01;2.05;;;1.63;;
49139;SDS011;34959;49.310;8.646;2022-08-01T01:56:27;2.67;;;1.75;;
49139;SDS011;34959;49.310;8.646;2022-08-01T01:58:56;2.78;;;1.50;;
49139;SDS011;34959;49.310;8.646;2022-08-01T02:01:23;1.63;;;1.40;;
49139;SDS011;34959;49.310;8.646;2022-08-01T02:03:51;1.83;;;1.52;;
49139;SDS011;34959;49.310;8.646;2022-08-01T02:06:19;2.53;;;1.67;;
49139;SDS011;34959;49.310;8.646;2022-08-01T02:08:45;1.65;;;1.45;;
49139;SDS011;34959;49.310;8.646;2022-08-01T02:11:12;2.85;;;1.60;;
49139;SDS011;34959;49.310;8.646;2022-08-01T02:13:43;2.65;;;1.50;;
49139;SDS011;34959;49.310;8.646;2022-08-01T02:16:11;2.42;;;1.60;;
49139;SDS011;34959;49.310;8.646;2022-08-01T02:18:37;2.03;;;1.65;;
49139;SDS011;34959;49.310;8.646;2022-08-01T02:21:03;2.78;;;1.60;;
49139;SDS011;34959;49.310;8.646;2022-08-01T02:23:31;3.80;;;1.63;;
49139;SDS011;34959;49.310;8.646;2022-08-01T02:25:58;1.88;;;1.50;;
49139;SDS011;34959;49.310;8.646;2022-08-01T02:28:29;2.20;;;1.60;;
49139;SDS011;34959;49.310;8.646;2022-08-01T02:30:59;1.67;;;1.40;;
49139;SDS011;34959;49.310;8.646;2022-08-01T02:33:27;1.98;;;1.40;;
49139;SDS011;34959;49.310;8.646;2022-08-01T02:38:24;2.00;;;1.37;;
49139;SDS011;34959;49.310;8.646;2022-08-01T02:40:52;2.60;;;1.70;;
49139;SDS011;34959;49.310;8.646;2022-08-01T02:43:18;1.67;;;1.30;;
49139;SDS011;34959;49.310;8.646;2022-08-01T02:45:48;1.83;;;1.55;;
49139;SDS011;34959;49.310;8.646;2022-08-01T02:48:17;2.22;;;1.48;;
49139;SDS011;34959;49.310;8.646;2022-08-01T02:50:45;2.38;;;1.48;;
49139;SDS011;34959;49.310;8.646;2022-08-01T02:53:13;1.40;;;1.30;;
49139;SDS011;34959;49.310;8.646;2022-08-01T02:55:40;2.92;;;1.48;;
49139;SDS011;34959;49.310;8.646;2022-08-01T02:58:06;2.63;;;1.75;;
49139;SDS011;34959;49.310;8.646;2022-08-01T03:00:33;2.72;;;1.30;;
49139;SDS011;34959;49.310;8.646;2022-08-01T03:02:59;1.92;;;1.40;;
49139;SDS011;34959;49.310;8.646;2022-08-01T03:05:26;1.83;;;1.30;;
49139;SDS011;34959;49.310;8.646;2022-08-01T03:07:52;2.47;;;1.83;;
49139;SDS011;34959;49.310;8.646;2022-08-01T03:10:19;1.92;;;1.50;;
49139;SDS011;34959;49.310;8.646;2022-08-01T03:12:45;3.38;;;1.40;;
49139;SDS011;34959;49.310;8.646;2022-08-01T03:15:12;2.45;;;1.50;;
49139;SDS011;34959;49.310;8.646;2022-08-01T03:17:38;1.75;;;1.40;;
49139;SDS011;34959;49.310;8.646;2022-08-01T03:20:06;2.22;;;1.50;;
49139;SDS011;34959;49.310;8.646;2022-08-01T03:22:33;1.70;;;1.40;;
49139;SDS011;34959;49.310;8.646;2022-08-01T03:24:59;1.85;;;1.55;;
49139;SDS011;34959;49.310;8.646;2022-08-01T03:27:26;2.20;;;1.50;;
49139;SDS011;34959;49.310;8.646;2022-08-01T03:29:51;2.60;;;1.52;;
49139;SDS011;34959;49.310;8.646;2022-08-01T03:32:20;1.80;;;1.52;;
49139;SDS011;34959;49.310;8.646;2022-08-01T03:34:47;3.17;;;1.52;;
49139;SDS011;34959;49.310;8.646;2022-08-01T03:37:23;2.15;;;1.45;;
49139;SDS011;34959;49.310;8.646;2022-08-01T03:40:03;2.30;;;1.60;;
49139;SDS011;34959;49.310;8.646;2022-08-01T03:42:32;2.90;;;1.35;;
49139;SDS011;34959;49.310;8.646;2022-08-01T03:44:59;2.75;;;1.60;;
49139;SDS011;34959;49.310;8.646;2022-08-01T03:47:30;2.05;;;1.67;;
49139;SDS011;34959;49.310;8.646;2022-08-01T03:49:57;2.47;;;1.60;;
49139;SDS011;34959;49.310;8.646;2022-08-01T03:52:23;2.42;;;1.45;;
49139;SDS011;34959;49.310;8.646;2022-08-01T03:54:50;2.35;;;1.40;;
49139;SDS011;34959;49.310;8.646;2022-08-01T03:57:16;3.40;;;1.63;;
49139;SDS011;34959;49.310;8.646;2022-08-01T03:59:42;1.92;;;1.35;;
49139;SDS011;34959;49.310;8.646;2022-08-01T04:02:08;2.55;;;1.60;;
49139;SDS011;34959;49.310;8.646;2022-08-01T04:04:34;3.13;;;1.55;;
49139;SDS011;34959;49.310;8.646;2022-08-01T04:06:59;2.45;;;1.52;;
49139;SDS011;34959;49.310;8.646;2022-08-01T04:09:30;2.00;;;1.52;;
49139;SDS011;34959;49.310;8.646;2022-08-01T04:11:57;2.78;;;1.77;;
49139;SDS011;34959;49.310;8.646;2022-08-01T04:14:23;2.75;;;1.60;;
49139;SDS011;34959;49.310;8.646;2022-08-01T04:16:49;3.20;;;1.40;;
49139;SDS011;34959;49.310;8.646;2022-08-01T04:19:14;1.70;;;1.40;;
49139;SDS011;34959;49.310;8.646;2022-08-01T04:21:40;1.58;;;1.40;;
49139;SDS011;34959;49.310;8.646;2022-08-01T04:24:15;2.25;;;1.60;;
49139;SDS011;34959;49.310;8.646;2022-08-01T04:26:43;2.28;;;1.60;;
49139;SDS011;34959;49.310;8.646;2022-08-01T04:29:09;2.22;;;1.55;;
49139;SDS011;34959;49.310;8.646;2022-08-01T04:31:36;2.17;;;1.75;;
49139;SDS011;34959;49.310;8.646;2022-08-01T04:34:02;1.60;;;1.50;;
49139;SDS011;34959;49.310;8.646;2022-08-01T04:36:29;2.47;;;1.67;;
49139;SDS011;34959;49.310;8.646;2022-08-01T04:38:59;2.30;;;1.50;;
49139;SDS011;34959;49.310;8.646;2022-08-01T04:41:25;3.78;;;1.67;;
49139;SDS011;34959;49.310;8.646;2022-08-01T04:43:51;3.00;;;1.70;;
49139;SDS011;34959;49.310;8.646;2022-08-01T04:46:17;2.75;;;1.70;;
49139;SDS011;34959;49.310;8.646;2022-08-01T04:48:43;2.97;;;1.60;;
49139;SDS011;34959;49.310;8.646;2022-08-01T04:51:13;1.80;;;1.50;;
49139;SDS011;34959;49.310;8.646;2022-08-01T04:53:43;2.65;;;1.50;;
49139;SDS011;34959;49.310;8.646;2022-08-01T04:56:09;1.95;;;1.63;;
49139;SDS011;34959;49.310;8.646;2022-08-01T04:58:34;1.88;;;1.58;;
49139;SDS011;34959;49.310;8.646;2022-08-01T05:01:00;2.90;;;1.58;;
49139;SDS011;34959;49.310;8.646;2022-08-01T05:03:25;1.90;;;1.52;;
49139;SDS011;34959;49.310;8.646;2022-08-01T05:05:50;2.80;;;1.60;;
49139;SDS011;34959;49.310;8.646;2022-08-01T05:08:16;2.55;;;1.50;;
49139;SDS011;34959;49.310;8.646;2022-08-01T05:10:41;3.13;;;1.75;;
49139;SDS011;34959;49.310;8.646;2022-08-01T05:13:07;2.22;;;1.38;;
49139;SDS011;34959;49.310;8.646;2022-08-01T05:15:33;3.63;;;1.63;;
49139;SDS011;34959;49.310;8.646;2022-08-01T05:17:59;2.20;;;1.42;;
49139;SDS011;34959;49.310;8.646;2022-08-01T05:20:25;2.05;;;1.48;;
49139;SDS011;34959;49.310;8.646;2022-08-01T05:22:50;2.17;;;1.55;;
49139;SDS011;34959;49.310;8.646;2022-08-01T05:25:16;2.10;;;1.38;;
49139;SDS011;34959;49.310;8.646;2022-08-01T05:27:41;1.83;;;1.40;;
49139;SDS011;34959;49.310;8.646;2022-08-01T05:30:07;2.10;;;1.55;;
49139;SDS011;34959;49.310;8.646;2022-08-01T05:32:33;1.73;;;1.42;;
49139;SDS011;34959;49.310;8.646;2022-08-01T05:34:59;1.85;;;1.33;;
49139;SDS011;34959;49.310;8.646;2022-08-01T05:37:24;2.42;;;1.50;;
49139;SDS011;34959;49.310;8.646;2022-08-01T05:39:50;2.05;;;1.38;;
49139;SDS011;34959;49.310;8.646;2022-08-01T05:42:15;2.42;;;1.40;;
49139;SDS011;34959;49.310;8.646;2022-08-01T05:44:41;1.98;;;1.50;;
49139;SDS011;34959;49.310;8.646;2022-08-01T05:47:06;2.47;;;1.50;;
49139;SDS011;34959;49.310;8.646;2022-08-01T05:49:32;3.00;;;1.50;;
49139;SDS011;34959;49.310;8.646;2022-08-01T05:51:57;2.45;;;1.50;;
49139;SDS011;34959;49.310;8.646;2022-08-01T05:54:23;3.80;;;1.73;;
49139;SDS011;34959;49.310;8.646;2022-08-01T05:56:48;2.67;;;1.73;;
49139;SDS011;34959;49.310;8.646;2022-08-01T05:59:13;3.97;;;1.60;;
49139;SDS011;34959;49.310;8.646;2022-08-01T06:01:39;4.32;;;1.75;;
49139;SDS011;34959;49.310;8.646;2022-08-01T06:04:04;3.97;;;1.90;;
49139;SDS011;34959;49.310;8.646;2022-08-01T06:06:30;9.05;;;2.03;;
49139;SDS011;34959;49.310;8.646;2022-08-01T06:08:55;4.97;;;2.67;;
49139;SDS011;34959;49.310;8.646;2022-08-01T06:11:21;4.30;;;2.00;;
49139;SDS011;34959;49.310;8.646;2022-08-01T06:13:46;4.47;;;1.70;;
49139;SDS011;34959;49.310;8.646;2022-08-01T06:16:12;4.03;;;1.67;;
49139;SDS011;34959;49.310;8.646;2022-08-01T06:18:37;3.10;;;1.67;;
49139;SDS011;34959;49.310;8.646;2022-08-01T06:21:02;4.85;;;1.55;;
49139;SDS011;34959;49.310;8.646;2022-08-01T06:23:28;4.07;;;1.70;;
49139;SDS011;34959;49.310;8.646;2022-08-01T06:25:53;2.78;;;1.55;;
49139;SDS011;34959;49.310;8.646;2022-08-01T06:28:19;2.75;;;1.52;;
49139;SDS011;34959;49.310;8.646;2022-08-01T06:30:45;3.25;;;1.60;;
49139;SDS011;34959;49.310;8.646;2022-08-01T06:33:11;3.08;;;1.48;;
49139;SDS011;34959;49.310;8.646;2022-08-01T06:35:36;3.05;;;1.40;;
49139;SDS011;34959;49.310;8.646;2022-08-01T06:38:02;5.25;;;1.60;;
49139;SDS011;34959;49.310;8.646;2022-08-01T06:40:27;3.35;;;1.35;;
49139;SDS011;34959;49.310;8.646;2022-08-01T06:42:53;2.05;;;1.10;;
49139;SDS011;34959;49.310;8.646;2022-08-01T06:45:18;2.80;;;1.00;;
49139;SDS011;34959;49.310;8.646;2022-08-01T06:47:47;2.15;;;1.30;;
49139;SDS011;34959;49.310;8.646;2022-08-01T06:50:13;2.55;;;1.00;;
49139;SDS011;34959;49.310;8.646;2022-08-01T06:52:39;2.67;;;1.10;;
49139;SDS011;34959;49.310;8.646;2022-08-01T06:55:05;1.63;;;1.23;;
49139;SDS011;34959;49.310;8.646;2022-08-01T06:57:31;2.10;;;1.00;;
49139;SDS011;34959;49.310;8.646;2022-08-01T06:59:57;1.17;;;0.95;;
49139;SDS011;34959;49.310;8.646;2022-08-01T07:02:30;2.10;;;0.90;;
49139;SDS011;34959;49.310;8.646;2022-08-01T07:04:56;2.13;;;0.70;;
49139;SDS011;34959;49.310;8.646;2022-08-01T07:07:25;1.73;;;0.60;;
49139;SDS011;34959;49.310;8.646;2022-08-01T07:09:50;1.20;;;0.70;;
49139;SDS011;34959;49.310;8.646;2022-08-01T07:12:16;1.77;;;0.80;;
49139;SDS011;34959;49.310;8.646;2022-08-01T07:14:41;1.25;;;0.55;;
49139;SDS011;34959;49.310;8.646;2022-08-01T07:17:06;1.25;;;0.50;;
49139;SDS011;34959;49.310;8.646;2022-08-01T07:19:32;0.63;;;0.60;;
49139;SDS011;34959;49.310;8.646;2022-08-01T07:21:58;1.17;;;0.70;;
49139;SDS011;34959;49.310;8.646;2022-08-01T07:24:23;2.05;;;0.70;;
49139;SDS011;34959;49.310;8.646;2022-08-01T07:26:49;1.92;;;0.70;;
49139;SDS011;34959;49.310;8.646;2022-08-01T07:29:15;1.00;;;0.52;;
49139;SDS011;34959;49.310;8.646;2022-08-01T07:31:40;1.00;;;0.60;;
49139;SDS011;34959;49.310;8.646;2022-08-01T07:34:06;1.05;;;0.57;;
49139;SDS011;34959;49.310;8.646;2022-08-01T07:36:31;1.00;;;0.50;;
49139;SDS011;34959;49.310;8.646;2022-08-01T07:38:57;0.77;;;0.60;;
49139;SDS011;34959;49.310;8.646;2022-08-01T07:41:23;1.02;;;0.60;;
49139;SDS011;34959;49.310;8.646;2022-08-01T07:43:48;2.33;;;0.50;;
49139;SDS011;34959;49.310;8.646;2022-08-01T07:46:14;1.42;;;0.70;;
49139;SDS011;34959;49.310;8.646;2022-08-01T07:48:39;1.33;;;0.50;;
49139;SDS011;34959;49.310;8.646;2022-08-01T07:51:05;2.90;;;0.70;;
49139;SDS011;34959;49.310;8.646;2022-08-01T07:53:30;1.40;;;0.70;;
49139;SDS011;34959;49.310;8.646;2022-08-01T07:55:56;1.67;;;0.65;;
49139;SDS011;34959;49.310;8.646;2022-08-01T07:58:21;2.70;;;0.85;;
49139;SDS011;34959;49.310;8.646;2022-08-01T08:00:46;2.10;;;0.70;;
49139;SDS011;34959;49.310;8.646;2022-08-01T08:03:12;2.40;;;0.68;;
49139;SDS011;34959;49.310;8.646;2022-08-01T08:05:37;0.73;;;0.60;;
49139;SDS011;34959;49.310;8.646;2022-08-01T08:08:06;1.90;;;0.70;;
49139;SDS011;34959;49.310;8.646;2022-08-01T08:10:33;3.20;;;0.65;;
49139;SDS011;34959;49.310;8.646;2022-08-01T08:12:58;2.30;;;0.70;;
49139;SDS011;34959;49.310;8.646;2022-08-01T08:15:24;3.03;;;0.80;;
49139;SDS011;34959;49.310;8.646;2022-08-01T08:17:49;1.40;;;0.60;;
49139;SDS011;34959;49.310;8.646;2022-08-01T08:20:15;2.30;;;0.70;;
49139;SDS011;34959;49.310;8.646;2022-08-01T08:22:40;3.35;;;0.80;;
49139;SDS011;34959;49.310;8.646;2022-08-01T08:25:06;2.45;;;0.68;;
49139;SDS011;34959;49.310;8.646;2022-08-01T08:27:32;2.17;;;0.60;;
49139;SDS011;34959;49.310;8.646;2022-08-01T08:29:58;1.38;;;0.70;;
49139;SDS011;34959;49.310;8.646;2022-08-01T08:32:23;1.95;;;0.80;;
49139;SDS011;34959;49.310;8.646;2022-08-01T08:34:49;0.93;;;0.40;;
49139;SDS011;34959;49.310;8.646;2022-08-01T08:37:14;1.38;;;0.80;;
49139;SDS011;34959;49.310;8.646;2022-08-01T08:39:40;1.33;;;0.60;;
49139;SDS011;34959;49.310;8.646;2022-08-01T08:42:06;2.70;;;0.70;;
49139;SDS011;34959;49.310;8.646;2022-08-01T08:44:32;0.90;;;0.57;;
49139;SDS011;34959;49.310;8.646;2022-08-01T08:46:58;1.13;;;0.50;;
49139;SDS011;34959;49.310;8.646;2022-08-01T08:49:27;1.30;;;0.70;;
49139;SDS011;34959;49.310;8.646;2022-08-01T08:51:53;1.10;;;0.77;;
49139;SDS011;34959;49.310;8.646;2022-08-01T08:54:23;1.42;;;0.60;;
49139;SDS011;34959;49.310;8.646;2022-08-01T08:56:50;1.10;;;0.60;;
49139;SDS011;34959;49.310;8.646;2022-08-01T08:59:15;1.25;;;0.60;;
49139;SDS011;34959;49.310;8.646;2022-08-01T09:01:41;1.33;;;0.60;;
49139;SDS011;34959;49.310;8.646;2022-08-01T09:04:07;0.85;;;0.70;;
49139;SDS011;34959;49.310;8.646;2022-08-01T09:06:32;0.98;;;0.60;;
49139;SDS011;34959;49.310;8.646;2022-08-01T09:08:58;0.85;;;0.57;;
49139;SDS011;34959;49.310;8.646;2022-08-01T09:11:24;1.48;;;0.73;;
49139;SDS011;34959;49.310;8.646;2022-08-01T09:14:07;1.42;;;0.73;;
49139;SDS011;34959;49.310;8.646;2022-08-01T09:16:47;1.30;;;0.60;;
49139;SDS011;34959;49.310;8.646;2022-08-01T09:19:34;1.20;;;0.60;;
49139;SDS011;34959;49.310;8.646;2022-08-01T09:22:02;1.58;;;0.60;;
49139;SDS011;34959;49.310;8.646;2022-08-01T09:24:30;2.00;;;0.57;;
49139;SDS011;34959;49.310;8.646;2022-08-01T09:26:56;1.25;;;0.70;;
49139;SDS011;34959;49.310;8.646;2022-08-01T09:29:23;0.70;;;0.40;;
49139;SDS011;34959;49.310;8.646;2022-08-01T09:31:53;2.53;;;0.60;;
49139;SDS011;34959;49.310;8.646;2022-08-01T09:34:25;2.13;;;0.50;;
49139;SDS011;34959;49.310;8.646;2022-08-01T09:36:53;1.58;;;0.60;;
49139;SDS011;34959;49.310;8.646;2022-08-01T09:39:25;1.75;;;0.40;;
49139;SDS011;34959;49.310;8.646;2022-08-01T09:41:52;1.02;;;0.50;;
49139;SDS011;34959;49.310;8.646;2022-08-01T09:44:18;3.05;;;0.50;;
49139;SDS011;34959;49.310;8.646;2022-08-01T09:46:48;1.27;;;0.50;;
49139;SDS011;34959;49.310;8.646;2022-08-01T09:49:14;0.88;;;0.55;;
49139;SDS011;34959;49.310;8.646;2022-08-01T09:51:39;1.52;;;0.50;;
49139;SDS011;34959;49.310;8.646;2022-08-01T09:54:05;2.25;;;0.65;;
49139;SDS011;34959;49.310;8.646;2022-08-01T09:56:38;1.20;;;0.60;;
49139;SDS011;34959;49.310;8.646;2022-08-01T09:59:05;1.23;;;0.60;;
49139;SDS011;34959;49.310;8.646;2022-08-01T10:01:47;1.23;;;0.60;;
49139;SDS011;34959;49.310;8.646;2022-08-01T10:04:15;1.23;;;0.60;;
49139;SDS011;34959;49.310;8.646;2022-08-01T10:06:42;0.82;;;0.50;;
49139;SDS011;34959;49.310;8.646;2022-08-01T10:09:10;1.25;;;0.55;;
49139;SDS011;34959;49.310;8.646;2022-08-01T10:11:37;0.80;;;0.70;;
49139;SDS011;34959;49.310;8.646;2022-08-01T10:14:05;0.63;;;0.45;;
49139;SDS011;34959;49.310;8.646;2022-08-01T10:16:32;1.15;;;0.60;;
49139;SDS011;34959;49.310;8.646;2022-08-01T10:18:58;0.77;;;0.60;;
49139;SDS011;34959;49.310;8.646;2022-08-01T10:21:25;1.88;;;0.80;;
49139;SDS011;34959;49.310;8.646;2022-08-01T10:23:52;1.10;;;0.47;;
49139;SDS011;34959;49.310;8.646;2022-08-01T10:26:19;0.80;;;0.50;;
49139;SDS011;34959;49.310;8.646;2022-08-01T10:28:45;0.70;;;0.50;;
49139;SDS011;34959;49.310;8.646;2022-08-01T10:31:13;0.73;;;0.50;;
49139;SDS011;34959;49.310;8.646;2022-08-01T10:33:38;1.10;;;0.52;;
49139;SDS011;34959;49.310;8.646;2022-08-01T10:36:06;0.85;;;0.52;;
49139;SDS011;34959;49.310;8.646;2022-08-01T10:38:32;0.80;;;0.45;;
49139;SDS011;34959;49.310;8.646;2022-08-01T10:40:57;0.90;;;0.50;;
49139;SDS011;34959;49.310;8.646;2022-08-01T10:43:24;0.77;;;0.52;;
49139;SDS011;34959;49.310;8.646;2022-08-01T10:45:50;1.27;;;0.75;;
49139;SDS011;34959;49.310;8.646;2022-08-01T10:48:18;1.30;;;0.63;;
49139;SDS011;34959;49.310;8.646;2022-08-01T10:50:45;0.95;;;0.70;;
49139;SDS011;34959;49.310;8.646;2022-08-01T10:53:13;0.70;;;0.40;;
49139;SDS011;34959;49.310;8.646;2022-08-01T10:58:13;0.82;;;0.40;;
49139;SDS011;34959;49.310;8.646;2022-08-01T11:00:38;0.43;;;0.43;;
49139;SDS011;34959;49.310;8.646;2022-08-01T11:03:04;0.82;;;0.50;;
49139;SDS011;34959;49.310;8.646;2022-08-01T11:05:36;0.57;;;0.40;;
49139;SDS011;34959;49.310;8.646;2022-08-01T11:08:12;0.63;;;0.40;;
49139;SDS011;34959;49.310;8.646;2022-08-01T11:10:46;0.95;;;0.50;;
49139;SDS011;34959;49.310;8.646;2022-08-01T11:13:12;1.20;;;0.60;;
49139;SDS011;34959;49.310;8.646;2022-08-01T11:15:38;0.90;;;0.50;;
49139;SDS011;34959;49.310;8.646;2022-08-01T11:20:55;0.55;;;0.35;;
49139;SDS011;34959;49.310;8.646;2022-08-01T11:23:23;0.85;;;0.50;;
49139;SDS011;34959;49.310;8.646;2022-08-01T11:30:44;1.02;;;0.40;;
49139;SDS011;34959;49.310;8.646;2022-08-01T11:33:11;0.60;;;0.40;;
49139;SDS011;34959;49.310;8.646;2022-08-01T11:35:37;0.70;;;0.47;;
49139;SDS011;34959;49.310;8.646;2022-08-01T11:38:22;1.10;;;0.40;;
49139;SDS011;34959;49.310;8.646;2022-08-01T11:52:09;1.55;;;0.50;;
49139;SDS011;34959;49.310;8.646;2022-08-01T11:54:40;0.65;;;0.45;;
49139;SDS011;34959;49.310;8.646;2022-08-01T11:57:14;0.50;;;0.38;;
49139;SDS011;34959;49.310;8.646;2022-08-01T11:59:44;0.82;;;0.43;;
49139;SDS011;34959;49.310;8.646;2022-08-01T12:02:16;0.88;;;0.50;;
49139;SDS011;34959;49.310;8.646;2022-08-01T12:04:51;0.55;;;0.30;;
49139;SDS011;34959;49.310;8.646;2022-08-01T12:07:23;0.47;;;0.30;;
49139;SDS011;34959;49.310;8.646;2022-08-01T12:09:58;1.02;;;0.63;;
49139;SDS011;34959;49.310;8.646;2022-08-01T12:12:24;0.65;;;0.40;;
49139;SDS011;34959;49.310;8.646;2022-08-01T12:14:57;0.50;;;0.30;;
49139;SDS011;34959;49.310;8.646;2022-08-01T12:17:34;0.52;;;0.47;;
49139;SDS011;34959;49.310;8.646;2022-08-01T12:20:00;0.50;;;0.45;;
49139;SDS011;34959;49.310;8.646;2022-08-01T12:22:26;0.80;;;0.40;;
49139;SDS011;34959;49.310;8.646;2022-08-01T12:24:52;0.55;;;0.40;;
49139;SDS011;34959;49.310;8.646;2022-08-01T12:27:28;0.40;;;0.40;;
49139;SDS011;34959;49.310;8.646;2022-08-01T12:29:54;0.40;;;0.40;;
49139;SDS011;34959;49.310;8.646;2022-08-01T12:32:25;0.43;;;0.40;;
49139;SDS011;34959;49.310;8.646;2022-08-01T12:34:53;0.87;;;0.30;;
49139;SDS011;34959;49.310;8.646;2022-08-01T12:37:19;0.30;;;0.30;;
49139;SDS011;34959;49.310;8.646;2022-08-01T12:39:45;1.15;;;0.40;;
49139;SDS011;34959;49.310;8.646;2022-08-01T12:42:11;0.40;;;0.40;;
49139;SDS011;34959;49.310;8.646;2022-08-01T12:44:37;1.30;;;0.40;;
49139;SDS011;34959;49.310;8.646;2022-08-01T12:47:03;0.75;;;0.30;;
49139;SDS011;34959;49.310;8.646;2022-08-01T12:49:31;1.02;;;0.40;;
49139;SDS011;34959;49.310;8.646;2022-08-01T12:52:00;0.40;;;0.40;;
49139;SDS011;34959;49.310;8.646;2022-08-01T12:54:26;0.40;;;0.40;;
49139;SDS011;34959;49.310;8.646;2022-08-01T12:56:52;0.88;;;0.32;;
49139;SDS011;34959;49.310;8.646;2022-08-01T12:59:25;1.33;;;0.43;;
49139;SDS011;34959;49.310;8.646;2022-08-01T13:01:52;0.50;;;0.40;;
49139;SDS011;34959;49.310;8.646;2022-08-01T13:04:18;1.02;;;0.30;;
49139;SDS011;34959;49.310;8.646;2022-08-01T13:06:44;0.70;;;0.30;;
49139;SDS011;34959;49.310;8.646;2022-08-01T13:09:12;0.77;;;0.45;;
49139;SDS011;34959;49.310;8.646;2022-08-01T13:11:39;0.75;;;0.30;;
49139;SDS011;34959;49.310;8.646;2022-08-01T13:14:06;0.28;;;0.28;;
49139;SDS011;34959;49.310;8.646;2022-08-01T13:16:31;0.40;;;0.35;;
49139;SDS011;34959;49.310;8.646;2022-08-01T13:18:57;0.80;;;0.40;;
49139;SDS011;34959;49.310;8.646;2022-08-01T13:21:24;0.52;;;0.32;;
49139;SDS011;34959;49.310;8.646;2022-08-01T13:24:06;0.63;;;0.40;;
49139;SDS011;34959;49.310;8.646;2022-08-01T13:29:07;0.35;;;0.28;;
49139;SDS011;34959;49.310;8.646;2022-08-01T13:31:34;0.80;;;0.50;;
49139;SDS011;34959;49.310;8.646;2022-08-01T13:34:00;0.40;;;0.40;;
49139;SDS011;34959;49.310;8.646;2022-08-01T13:36:26;0.55;;;0.40;;
49139;SDS011;34959;49.310;8.646;2022-08-01T13:38:56;0.95;;;0.40;;
49139;SDS011;34959;49.310;8.646;2022-08-01T13:41:41;0.95;;;0.40;;
49139;SDS011;34959;49.310;8.646;2022-08-01T13:44:06;0.30;;;0.30;;
49139;SDS011;34959;49.310;8.646;2022-08-01T13:46:34;0.85;;;0.35;;
49139;SDS011;34959;49.310;8.646;2022-08-01T13:49:00;0.43;;;0.30;;
49139;SDS011;34959;49.310;8.646;2022-08-01T13:51:25;0.30;;;0.30;;
49139;SDS011;34959;49.310;8.646;2022-08-01T13:53:51;0.50;;;0.40;;
49139;SDS011;34959;49.310;8.646;2022-08-01T13:56:16;0.63;;;0.40;;
49139;SDS011;34959;49.310;8.646;2022-08-01T13:58:42;1.02;;;0.30;;
49139;SDS011;34959;49.310;8.646;2022-08-01T14:01:08;0.55;;;0.40;;
49139;SDS011;34959;49.310;8.646;2022-08-01T14:03:34;0.82;;;0.38;;
49139;SDS011;34959;49.310;8.646;2022-08-01T14:05:59;0.80;;;0.43;;
49139;SDS011;34959;49.310;8.646;2022-08-01T14:08:25;0.80;;;0.35;;
49139;SDS011;34959;49.310;8.646;2022-08-01T14:10:51;2.97;;;0.50;;
49139;SDS011;34959;49.310;8.646;2022-08-01T14:13:18;0.30;;;0.30;;
49139;SDS011;34959;49.310;8.646;2022-08-01T14:15:44;1.92;;;0.40;;
49139;SDS011;34959;49.310;8.646;2022-08-01T14:18:09;0.75;;;0.47;;
49139;SDS011;34959;49.310;8.646;2022-08-01T14:20:35;1.52;;;0.40;;
49139;SDS011;34959;49.310;8.646;2022-08-01T14:23:02;1.10;;;0.40;;
49139;SDS011;34959;49.310;8.646;2022-08-01T14:25:27;0.47;;;0.32;;
49139;SDS011;34959;49.310;8.646;2022-08-01T14:27:53;2.25;;;0.35;;
49139;SDS011;34959;49.310;8.646;2022-08-01T14:30:18;1.27;;;0.40;;
49139;SDS011;34959;49.310;8.646;2022-08-01T14:32:44;0.63;;;0.40;;
49139;SDS011;34959;49.310;8.646;2022-08-01T14:35:09;0.90;;;0.40;;
49139;SDS011;34959;49.310;8.646;2022-08-01T14:37:35;0.60;;;0.40;;
49139;SDS011;34959;49.310;8.646;2022-08-01T14:40:00;0.40;;;0.40;;
49139;SDS011;34959;49.310;8.646;2022-08-01T14:42:30;0.80;;;0.40;;
49139;SDS011;34959;49.310;8.646;2022-08-01T14:44:55;0.68;;;0.32;;
49139;SDS011;34959;49.310;8.646;2022-08-01T14:47:21;0.82;;;0.30;;
49139;SDS011;34959;49.310;8.646;2022-08-01T14:49:46;1.10;;;0.47;;
49139;SDS011;34959;49.310;8.646;2022-08-01T14:52:11;0.85;;;0.40;;
49139;SDS011;34959;49.310;8.646;2022-08-01T14:54:37;0.30;;;0.22;;
49139;SDS011;34959;49.310;8.646;2022-08-01T14:57:02;0.50;;;0.40;;
49139;SDS011;34959;49.310;8.646;2022-08-01T14:59:28;0.43;;;0.40;;
49139;SDS011;34959;49.310;8.646;2022-08-01T15:01:54;0.47;;;0.30;;
49139;SDS011;34959;49.310;8.646;2022-08-01T15:04:19;0.55;;;0.40;;
49139;SDS011;34959;49.310;8.646;2022-08-01T15:06:44;0.65;;;0.35;;
49139;SDS011;34959;49.310;8.646;2022-08-01T15:09:10;0.32;;;0.30;;
49139;SDS011;34959;49.310;8.646;2022-08-01T15:11:35;0.43;;;0.32;;
49139;SDS011;34959;49.310;8.646;2022-08-01T15:14:01;0.70;;;0.30;;
49139;SDS011;34959;49.310;8.646;2022-08-01T15:16:46;0.50;;;0.40;;
49139;SDS011;34959;49.310;8.646;2022-08-01T15:19:12;1.40;;;0.40;;
49139;SDS011;34959;49.310;8.646;2022-08-01T15:21:38;0.55;;;0.35;;
49139;SDS011;34959;49.310;8.646;2022-08-01T15:24:03;0.70;;;0.30;;